createdAt,value
2022-10-08T00:00:20.005Z,13.30
2022-10-08T00:02:47.151Z,13.30
2022-10-08T00:05:14.271Z,13.30
2022-10-08T00:07:42.772Z,13.40
2022-10-08T00:10:10.620Z,13.40
2022-10-08T00:12:37.542Z,13.40
2022-10-08T00:15:04.472Z,13.40
2022-10-08T00:17:31.359Z,13.50
2022-10-08T00:19:58.257Z,13.50
2022-10-08T00:22:25.357Z,13.50
2022-10-08T00:24:53.613Z,13.50
2022-10-08T00:27:24.040Z,13.60
2022-10-08T00:29:52.329Z,13.60
2022-10-08T00:32:20.067Z,13.60
2022-10-08T00:34:47.844Z,13.60
2022-10-08T00:37:15.605Z,13.70
2022-10-08T00:39:42.672Z,13.70
2022-10-08T00:42:11.444Z,13.70
2022-10-08T00:44:47.177Z,13.80
2022-10-08T00:47:16.715Z,13.80
2022-10-08T00:49:44.203Z,13.80
2022-10-08T00:52:11.081Z,13.90
2022-10-08T00:54:37.960Z,14.10
2022-10-08T00:57:06.550Z,14.40
2022-10-08T00:59:33.464Z,14.60
2022-10-08T01:02:00.870Z,14.80
2022-10-08T01:04:27.963Z,15.00
2022-10-08T01:06:54.777Z,15.10
2022-10-08T01:09:28.000Z,15.20
2022-10-08T01:12:04.057Z,15.30
2022-10-08T01:14:30.858Z,15.40
2022-10-08T01:16:57.765Z,15.50
2022-10-08T01:19:47.524Z,15.50
2022-10-08T01:22:14.283Z,15.60
2022-10-08T01:25:15.287Z,15.70
2022-10-08T01:27:42.196Z,15.70
2022-10-08T01:30:16.435Z,15.70
2022-10-08T01:32:45.213Z,15.70
2022-10-08T01:35:15.835Z,15.70
2022-10-08T01:37:43.711Z,15.70
2022-10-08T01:40:14.076Z,15.70
2022-10-08T01:42:41.271Z,15.70
2022-10-08T01:45:11.189Z,15.70
2022-10-08T01:47:39.924Z,15.70
2022-10-08T01:50:16.311Z,15.70
2022-10-08T01:52:46.298Z,15.50
2022-10-08T01:55:20.029Z,15.50
2022-10-08T01:57:47.591Z,15.50
2022-10-08T02:00:15.376Z,15.60
2022-10-08T02:02:43.350Z,15.70
2022-10-08T02:05:11.471Z,15.70
2022-10-08T02:07:40.094Z,15.70
2022-10-08T02:10:07.294Z,15.60
2022-10-08T02:12:36.006Z,15.50
2022-10-08T02:15:04.648Z,15.50
2022-10-08T02:17:31.537Z,15.50
2022-10-08T02:20:07.488Z,15.60
2022-10-08T02:22:40.392Z,15.60
2022-10-08T02:25:13.316Z,15.50
2022-10-08T02:27:51.947Z,15.60
2022-10-08T02:30:18.961Z,15.60
2022-10-08T02:32:46.027Z,15.70
2022-10-08T02:35:25.592Z,15.70
2022-10-08T02:37:58.249Z,15.70
2022-10-08T02:40:26.227Z,15.70
2022-10-08T02:42:55.591Z,15.70
2022-10-08T02:45:25.031Z,15.70
2022-10-08T02:47:54.875Z,15.70
2022-10-08T02:50:24.892Z,15.70
2022-10-08T02:52:52.251Z,15.70
2022-10-08T02:55:24.278Z,15.70
2022-10-08T02:57:56.241Z,15.70
2022-10-08T03:00:23.300Z,15.70
2022-10-08T03:02:56.470Z,15.70
2022-10-08T03:05:23.522Z,15.70
2022-10-08T03:07:51.504Z,15.70
2022-10-08T03:10:20.034Z,15.70
2022-10-08T03:12:47.126Z,15.70
2022-10-08T03:15:14.712Z,15.60
2022-10-08T03:17:43.602Z,15.60
2022-10-08T03:20:11.547Z,15.50
2022-10-08T03:22:38.710Z,15.50
2022-10-08T03:25:05.892Z,15.50
2022-10-08T03:27:35.302Z,15.50
2022-10-08T03:30:03.033Z,15.50
2022-10-08T03:32:29.859Z,15.50
2022-10-08T03:34:56.735Z,15.50
2022-10-08T03:37:25.165Z,15.40
2022-10-08T03:39:52.418Z,15.40
2022-10-08T03:42:19.325Z,15.40
2022-10-08T03:44:46.417Z,15.30
2022-10-08T03:47:14.274Z,15.30
2022-10-08T03:49:41.397Z,15.30
2022-10-08T03:52:08.561Z,15.20
2022-10-08T03:54:38.853Z,15.20
2022-10-08T03:57:05.680Z,15.10
2022-10-08T03:59:32.602Z,15.10
2022-10-08T04:01:59.522Z,15.00
2022-10-08T04:04:26.470Z,15.00
2022-10-08T04:06:53.394Z,14.90
2022-10-08T04:09:20.777Z,14.90
2022-10-08T04:11:48.962Z,14.80
2022-10-08T04:14:15.904Z,14.80
2022-10-08T04:16:42.805Z,14.70
2022-10-08T04:19:11.030Z,14.60
2022-10-08T04:21:37.863Z,14.60
2022-10-08T04:24:07.912Z,14.50
2022-10-08T04:26:34.752Z,14.40
2022-10-08T04:29:01.660Z,14.30
2022-10-08T04:31:28.581Z,14.30
2022-10-08T04:33:55.481Z,14.20
2022-10-08T04:36:23.465Z,14.20
2022-10-08T04:38:50.622Z,14.20
2022-10-08T04:41:24.446Z,14.10
2022-10-08T04:43:53.583Z,14.00
2022-10-08T04:46:21.358Z,14.00
2022-10-08T04:48:49.521Z,14.00
2022-10-08T04:51:16.449Z,13.90
2022-10-08T04:53:43.686Z,13.90
2022-10-08T04:56:21.363Z,13.90
2022-10-08T04:58:48.500Z,13.90
2022-10-08T05:01:16.641Z,13.90
2022-10-08T05:03:44.679Z,13.80
2022-10-08T05:06:11.961Z,13.80
2022-10-08T05:08:39.242Z,13.70
2022-10-08T05:11:06.335Z,13.70
2022-10-08T05:13:33.503Z,13.70
2022-10-08T05:16:18.698Z,13.60
2022-10-08T05:18:47.489Z,13.60
2022-10-08T05:21:15.738Z,13.60
2022-10-08T05:23:43.100Z,13.60
2022-10-08T05:26:12.990Z,13.60
2022-10-08T05:28:40.404Z,13.60
2022-10-08T05:31:07.505Z,13.60
2022-10-08T05:33:37.349Z,13.50
2022-10-08T05:36:05.811Z,13.40
2022-10-08T05:38:34.943Z,13.40
2022-10-08T05:41:09.487Z,13.30
2022-10-08T05:43:36.339Z,13.30
2022-10-08T05:46:03.918Z,13.20
2022-10-08T05:48:30.821Z,13.20
2022-10-08T05:51:03.191Z,13.20
2022-10-08T05:53:30.027Z,13.10
2022-10-08T05:56:03.921Z,13.10
2022-10-08T05:58:35.214Z,13.10
2022-10-08T06:01:03.435Z,13.00
2022-10-08T06:03:30.777Z,13.00
2022-10-08T06:06:02.989Z,13.00
2022-10-08T06:08:29.891Z,13.00
2022-10-08T06:10:56.840Z,12.90
2022-10-08T06:13:24.272Z,12.90
2022-10-08T06:15:56.619Z,12.90
2022-10-08T06:18:24.227Z,12.90
2022-10-08T06:20:51.366Z,12.90
2022-10-08T06:23:18.662Z,13.00
2022-10-08T06:25:45.527Z,13.00
2022-10-08T06:28:12.449Z,12.90
2022-10-08T06:30:39.874Z,13.00
2022-10-08T06:33:06.708Z,13.00
2022-10-08T06:35:33.750Z,13.00
2022-10-08T06:38:00.637Z,13.00
2022-10-08T06:40:27.842Z,13.10
2022-10-08T06:42:57.045Z,13.10
2022-10-08T06:45:23.892Z,13.10
2022-10-08T06:47:50.821Z,13.20
2022-10-08T06:50:17.895Z,13.20
2022-10-08T06:52:46.164Z,13.20
2022-10-08T06:55:13.187Z,13.30
2022-10-08T06:57:40.036Z,13.30
2022-10-08T07:00:07.402Z,13.40
2022-10-08T07:02:34.872Z,13.40
2022-10-08T07:05:01.757Z,13.40
2022-10-08T07:07:28.595Z,13.50
2022-10-08T07:09:55.402Z,13.50
2022-10-08T07:12:22.212Z,13.50
2022-10-08T07:14:49.046Z,13.60
2022-10-08T07:17:15.991Z,13.60
2022-10-08T07:19:43.422Z,13.60
2022-10-08T07:22:10.305Z,13.60
2022-10-08T07:24:37.177Z,13.70
2022-10-08T07:27:04.630Z,13.80
2022-10-08T07:29:32.015Z,13.80
2022-10-08T07:31:58.860Z,13.90
2022-10-08T07:34:26.118Z,13.90
2022-10-08T07:36:53.100Z,13.90
2022-10-08T07:39:20.242Z,14.00
2022-10-08T07:41:47.689Z,14.00
2022-10-08T07:44:15.662Z,14.10
2022-10-08T07:46:43.521Z,14.20
2022-10-08T07:49:10.442Z,14.20
2022-10-08T07:51:37.415Z,14.30
2022-10-08T07:54:05.899Z,14.30
2022-10-08T07:56:33.349Z,14.30
2022-10-08T07:59:00.990Z,14.40
2022-10-08T08:01:30.188Z,14.40
2022-10-08T08:03:59.499Z,14.40
2022-10-08T08:06:27.087Z,14.40
2022-10-08T08:08:54.127Z,14.40
2022-10-08T08:11:22.277Z,14.50
2022-10-08T08:13:49.161Z,14.60
2022-10-08T08:16:25.618Z,14.70
2022-10-08T08:18:54.056Z,14.80
2022-10-08T08:21:22.384Z,14.80
2022-10-08T08:23:50.712Z,14.90
2022-10-08T08:26:18.892Z,14.90
2022-10-08T08:28:46.021Z,15.00
2022-10-08T08:31:14.614Z,15.10
2022-10-08T08:33:42.939Z,15.10
2022-10-08T08:36:09.844Z,15.20
2022-10-08T08:38:37.553Z,15.20
2022-10-08T08:41:21.658Z,15.20
2022-10-08T08:43:48.715Z,15.30
2022-10-08T08:46:19.094Z,15.40
2022-10-08T08:48:46.210Z,15.40
2022-10-08T08:51:13.041Z,15.40
2022-10-08T08:53:39.885Z,15.50
2022-10-08T08:56:08.568Z,15.60
2022-10-08T08:58:38.561Z,15.60
2022-10-08T09:01:08.595Z,15.70
2022-10-08T09:03:44.127Z,15.80
2022-10-08T09:06:14.405Z,15.90
2022-10-08T09:08:43.755Z,15.90
2022-10-08T09:11:13.670Z,15.90
2022-10-08T09:13:50.111Z,15.80
2022-10-08T09:16:17.331Z,15.80
2022-10-08T09:18:45.753Z,15.90
2022-10-08T09:21:12.658Z,15.90
2022-10-08T09:23:39.551Z,15.90
2022-10-08T09:26:18.681Z,15.90
2022-10-08T09:28:47.413Z,15.90
2022-10-08T09:31:37.036Z,15.90
2022-10-08T09:34:06.315Z,15.90
2022-10-08T09:36:33.178Z,16.10
2022-10-08T09:39:00.548Z,16.30
2022-10-08T09:41:30.216Z,16.40
2022-10-08T09:44:09.385Z,16.40
2022-10-08T09:46:36.294Z,16.40
2022-10-08T09:49:22.002Z,16.50
2022-10-08T09:51:50.386Z,16.60
2022-10-08T09:54:20.371Z,16.80
2022-10-08T09:56:53.258Z,16.70
2022-10-08T09:59:21.229Z,16.70
2022-10-08T10:01:48.424Z,16.80
2022-10-08T10:04:20.105Z,16.80
2022-10-08T10:06:48.511Z,16.70
2022-10-08T10:09:21.595Z,16.60
2022-10-08T10:11:54.589Z,16.50
2022-10-08T10:14:40.344Z,16.40
2022-10-08T10:17:30.256Z,16.40
2022-10-08T10:20:02.322Z,16.30
2022-10-08T10:22:48.625Z,16.40
2022-10-08T10:25:25.004Z,16.40
2022-10-08T10:27:53.796Z,16.40
2022-10-08T10:30:22.044Z,16.30
2022-10-08T10:32:51.545Z,16.20
2022-10-08T10:35:26.171Z,16.20
2022-10-08T10:38:03.990Z,16.20
2022-10-08T10:40:32.861Z,16.20
2022-10-08T10:43:24.242Z,16.10
2022-10-08T10:45:53.970Z,16.10
2022-10-08T10:48:20.900Z,16.20
2022-10-08T10:50:58.010Z,16.40
2022-10-08T10:53:43.151Z,16.60
2022-10-08T10:56:15.864Z,16.70
2022-10-08T10:59:01.503Z,16.90
2022-10-08T11:01:45.484Z,17.10
2022-10-08T11:04:21.480Z,17.20
2022-10-08T11:07:07.159Z,17.20
2022-10-08T11:09:52.792Z,17.40
2022-10-08T11:12:34.781Z,17.50
2022-10-08T11:15:08.608Z,17.60
2022-10-08T11:17:50.709Z,17.80
2022-10-08T11:20:20.241Z,17.90
2022-10-08T11:22:50.461Z,18.00
2022-10-08T11:25:40.408Z,18.10
2022-10-08T11:28:32.328Z,18.20
2022-10-08T11:31:11.401Z,18.30
2022-10-08T11:33:38.970Z,18.50
2022-10-08T11:36:16.120Z,18.50
2022-10-08T11:38:43.071Z,18.60
2022-10-08T11:41:16.568Z,18.50
2022-10-08T11:43:54.805Z,18.50
2022-10-08T11:46:29.059Z,18.40
2022-10-08T11:48:57.251Z,18.40
2022-10-08T11:51:24.051Z,18.50
2022-10-08T11:54:12.685Z,18.60
2022-10-08T11:56:41.310Z,18.70
2022-10-08T11:59:28.424Z,18.80
2022-10-08T12:02:00.277Z,18.90
2022-10-08T12:04:33.284Z,19.00
2022-10-08T12:07:01.887Z,19.10
2022-10-08T12:09:48.675Z,19.20
2022-10-08T12:14:45.573Z,19.50
2022-10-08T12:17:12.553Z,19.40
2022-10-08T12:19:42.216Z,19.30
2022-10-08T12:22:14.969Z,19.20
2022-10-08T12:24:49.629Z,19.20
2022-10-08T12:27:17.032Z,19.30
2022-10-08T12:29:53.363Z,19.30
2022-10-08T12:32:20.417Z,19.30
2022-10-08T12:34:47.220Z,19.10
2022-10-08T12:37:27.034Z,19.10
2022-10-08T12:39:54.976Z,19.00
2022-10-08T12:42:27.769Z,18.90
2022-10-08T12:45:12.794Z,18.80
2022-10-08T12:47:53.248Z,18.80
2022-10-08T12:50:31.977Z,18.80
2022-10-08T12:53:00.079Z,18.90
2022-10-08T12:55:27.004Z,18.90
2022-10-08T12:57:53.879Z,18.90
2022-10-08T13:00:20.697Z,18.80
2022-10-08T13:03:01.267Z,18.90
2022-10-08T13:05:30.637Z,19.00
2022-10-08T13:07:57.773Z,19.00
2022-10-08T13:10:28.727Z,19.00
2022-10-08T13:12:59.276Z,19.00
2022-10-08T13:15:26.496Z,19.00
2022-10-08T13:17:53.988Z,19.00
2022-10-08T13:20:22.604Z,19.00
2022-10-08T13:22:49.510Z,19.00
2022-10-08T13:25:31.826Z,19.20
2022-10-08T13:28:11.095Z,19.30
2022-10-08T13:30:38.402Z,19.50
2022-10-08T13:33:17.440Z,19.80
2022-10-08T13:35:44.758Z,19.90
2022-10-08T13:38:18.646Z,20.00
2022-10-08T13:40:49.375Z,20.00
2022-10-08T13:43:16.188Z,20.00
2022-10-08T13:45:43.011Z,20.00
2022-10-08T13:48:11.694Z,19.80
2022-10-08T13:50:42.637Z,19.70
2022-10-08T13:53:10.139Z,19.60
2022-10-08T13:55:37.139Z,19.70
2022-10-08T13:58:05.729Z,19.70
2022-10-08T14:00:34.504Z,19.80
2022-10-08T14:03:01.867Z,19.90
2022-10-08T14:05:29.532Z,20.00
2022-10-08T14:07:58.713Z,19.90
2022-10-08T14:10:25.743Z,19.70
2022-10-08T14:12:52.602Z,19.90
2022-10-08T14:15:19.650Z,19.90
2022-10-08T14:17:46.834Z,19.80
2022-10-08T14:20:14.046Z,19.80
2022-10-08T14:22:41.103Z,19.70
2022-10-08T14:27:39.743Z,19.50
2022-10-08T14:30:07.006Z,19.30
2022-10-08T14:32:33.854Z,19.20
2022-10-08T14:35:00.761Z,19.10
2022-10-08T14:37:27.654Z,19.00
2022-10-08T14:39:54.492Z,18.90
2022-10-08T14:42:21.384Z,18.80
2022-10-08T14:44:48.283Z,18.70
2022-10-08T14:47:15.576Z,18.70
2022-10-08T14:49:42.394Z,18.70
2022-10-08T14:52:09.506Z,18.60
2022-10-08T14:54:36.347Z,18.60
2022-10-08T14:57:03.473Z,18.50
2022-10-08T14:59:30.331Z,18.60
2022-10-08T15:01:57.267Z,18.60
2022-10-08T15:04:27.961Z,18.70
2022-10-08T15:06:54.875Z,18.90
2022-10-08T15:09:21.717Z,19.00
2022-10-08T15:11:49.385Z,19.10
2022-10-08T15:14:16.227Z,19.10
2022-10-08T15:16:43.183Z,19.10
2022-10-08T15:19:10.407Z,19.10
2022-10-08T15:21:37.282Z,19.00
2022-10-08T15:24:04.338Z,19.00
2022-10-08T15:26:31.226Z,19.20
2022-10-08T15:28:58.381Z,19.20
2022-10-08T15:31:25.644Z,19.20
2022-10-08T15:33:53.540Z,19.30
2022-10-08T15:36:21.590Z,19.30
2022-10-08T15:38:54.059Z,19.40
2022-10-08T15:41:20.999Z,19.50
2022-10-08T15:43:47.849Z,19.50
2022-10-08T15:46:15.675Z,19.60
2022-10-08T15:48:42.764Z,19.70
2022-10-08T15:51:09.631Z,19.80
2022-10-08T15:53:37.729Z,19.80
2022-10-08T15:56:05.625Z,19.90
2022-10-08T15:58:49.785Z,19.80
2022-10-08T16:01:18.685Z,19.80
2022-10-08T16:03:46.876Z,19.90
2022-10-08T16:06:18.092Z,19.80
2022-10-08T16:08:45.103Z,19.70
2022-10-08T16:11:16.689Z,19.60
2022-10-08T16:13:44.181Z,19.60
2022-10-08T16:16:14.979Z,19.70
2022-10-08T16:18:42.647Z,19.70
2022-10-08T16:21:10.351Z,19.60
2022-10-08T16:23:40.023Z,19.60
2022-10-08T16:26:08.737Z,19.60
2022-10-08T16:28:36.956Z,19.50
2022-10-08T16:31:04.200Z,19.50
2022-10-08T16:33:31.402Z,19.50
2022-10-08T16:36:01.939Z,19.40
2022-10-08T16:38:30.187Z,19.20
2022-10-08T16:41:08.394Z,19.10
2022-10-08T16:43:35.211Z,19.10
2022-10-08T16:46:02.074Z,19.00
2022-10-08T16:48:28.996Z,18.90
2022-10-08T16:50:55.845Z,18.70
2022-10-08T16:53:22.680Z,18.60
2022-10-08T16:55:49.542Z,18.50
2022-10-08T16:58:16.390Z,18.40
2022-10-08T17:00:43.204Z,18.20
2022-10-08T17:03:10.069Z,18.00
2022-10-08T17:05:41.017Z,17.70
2022-10-08T17:08:07.906Z,17.50
2022-10-08T17:10:34.749Z,17.40
2022-10-08T17:13:01.686Z,17.30
2022-10-08T17:15:28.591Z,17.10
2022-10-08T17:17:55.762Z,17.00
2022-10-08T17:20:22.751Z,16.80
2022-10-08T17:22:51.017Z,16.60
2022-10-08T17:25:17.924Z,16.40
2022-10-08T17:27:44.769Z,16.30
2022-10-08T17:30:12.476Z,16.10
2022-10-08T17:32:39.275Z,15.90
2022-10-08T17:35:06.425Z,15.70
2022-10-08T17:37:33.305Z,15.60
2022-10-08T17:40:00.374Z,15.50
2022-10-08T17:42:27.193Z,15.50
2022-10-08T17:44:53.996Z,15.60
2022-10-08T17:47:22.154Z,15.60
2022-10-08T17:49:50.442Z,15.60
2022-10-08T17:52:17.277Z,15.60
2022-10-08T17:54:44.089Z,15.50
2022-10-08T17:57:10.946Z,15.50
2022-10-08T17:59:37.811Z,15.50
2022-10-08T18:02:04.843Z,15.50
2022-10-08T18:04:31.961Z,15.40
2022-10-08T18:07:03.274Z,15.40
2022-10-08T18:09:32.349Z,15.30
2022-10-08T18:11:59.224Z,15.30
2022-10-08T18:14:26.032Z,15.30
2022-10-08T18:16:53.006Z,15.20
2022-10-08T18:19:19.836Z,15.10
2022-10-08T18:21:46.863Z,15.10
2022-10-08T18:24:14.012Z,15.00
2022-10-08T18:26:40.899Z,14.90
2022-10-08T18:29:09.365Z,14.80
2022-10-08T18:31:37.330Z,14.70
2022-10-08T18:34:06.371Z,14.60
2022-10-08T18:36:34.797Z,14.60
2022-10-08T18:39:02.673Z,14.50
2022-10-08T18:41:30.594Z,14.50
2022-10-08T18:43:59.595Z,14.40
2022-10-08T18:46:27.142Z,14.40
2022-10-08T18:48:55.250Z,14.30
2022-10-08T18:51:23.742Z,14.20
2022-10-08T18:53:51.404Z,14.20
2022-10-08T18:56:21.009Z,14.10
2022-10-08T18:58:49.669Z,14.10
2022-10-08T19:01:20.406Z,14.00
2022-10-08T19:03:51.197Z,13.90
2022-10-08T19:06:19.021Z,13.80
2022-10-08T19:08:47.020Z,13.60
2022-10-08T19:11:15.991Z,13.50
2022-10-08T19:13:43.182Z,13.50
2022-10-08T19:16:13.817Z,13.50
2022-10-08T19:18:44.330Z,13.40
2022-10-08T19:21:13.393Z,13.40
2022-10-08T19:23:40.382Z,13.30
2022-10-08T19:26:07.593Z,13.20
2022-10-08T19:28:37.218Z,13.20
2022-10-08T19:31:20.777Z,13.20
2022-10-08T19:33:51.667Z,13.10
2022-10-08T19:36:19.372Z,13.00
2022-10-08T19:38:56.477Z,12.90
2022-10-08T19:41:23.750Z,12.90
2022-10-08T19:43:51.186Z,12.80
2022-10-08T19:46:18.418Z,12.80
2022-10-08T19:48:49.710Z,12.70
2022-10-08T19:51:16.814Z,12.60
2022-10-08T19:53:43.830Z,12.40
2022-10-08T19:56:11.318Z,12.30
2022-10-08T19:58:38.744Z,12.30
2022-10-08T20:01:07.538Z,12.30
2022-10-08T20:03:34.634Z,12.20
2022-10-08T20:06:02.336Z,12.20
2022-10-08T20:08:29.255Z,12.10
2022-10-08T20:10:57.610Z,12.10
2022-10-08T20:13:24.452Z,12.10
2022-10-08T20:15:51.740Z,12.00
2022-10-08T20:18:18.708Z,12.00
2022-10-08T20:20:45.502Z,11.90
2022-10-08T20:23:12.463Z,11.80
2022-10-08T20:25:39.338Z,11.80
2022-10-08T20:28:06.426Z,11.80
2022-10-08T20:30:33.277Z,11.70
2022-10-08T20:33:00.169Z,11.70
2022-10-08T20:35:26.998Z,11.70
2022-10-08T20:37:54.012Z,11.60
2022-10-08T20:40:20.920Z,11.50
2022-10-08T20:42:48.827Z,11.40
2022-10-08T20:45:15.966Z,11.40
2022-10-08T20:47:42.934Z,11.40
2022-10-08T20:50:09.955Z,11.40
2022-10-08T20:52:36.825Z,11.30
2022-10-08T20:55:03.738Z,11.30
2022-10-08T20:57:30.758Z,11.20
2022-10-08T20:59:57.622Z,11.20
2022-10-08T21:02:24.520Z,11.10
2022-10-08T21:04:51.393Z,11.00
2022-10-08T21:07:18.291Z,11.00
2022-10-08T21:09:45.118Z,11.00
2022-10-08T21:12:11.933Z,10.90
2022-10-08T21:14:38.773Z,10.90
2022-10-08T21:17:05.551Z,10.80
2022-10-08T21:19:32.366Z,10.80
2022-10-08T21:21:59.159Z,10.80
2022-10-08T21:24:26.041Z,10.70
2022-10-08T21:26:52.938Z,10.60
2022-10-08T21:29:19.790Z,10.60
2022-10-08T21:31:46.725Z,10.60
2022-10-08T21:34:13.779Z,10.60
2022-10-08T21:36:41.360Z,10.50
2022-10-08T21:39:08.867Z,10.50
2022-10-08T21:41:36.846Z,10.50
2022-10-08T21:44:05.386Z,10.50
2022-10-08T21:46:34.095Z,10.40
2022-10-08T21:49:02.341Z,10.40
2022-10-08T21:51:29.804Z,10.30
2022-10-08T21:53:57.394Z,10.30
2022-10-08T21:56:25.742Z,10.30
2022-10-08T21:58:53.834Z,10.20
2022-10-08T22:01:28.743Z,10.20
2022-10-08T22:03:59.678Z,10.20
2022-10-08T22:06:27.540Z,10.10
2022-10-08T22:08:57.788Z,10.10
2022-10-08T22:11:25.432Z,10.10
2022-10-08T22:13:52.316Z,10.10
2022-10-08T22:16:20.358Z,10.10
2022-10-08T22:18:47.353Z,10.00
2022-10-08T22:21:15.850Z,10.00
2022-10-08T22:23:42.719Z,9.90
2022-10-08T22:26:11.598Z,9.90
2022-10-08T22:28:39.162Z,9.80
2022-10-08T22:31:07.091Z,9.80
2022-10-08T22:33:33.993Z,9.80
2022-10-08T22:36:01.763Z,9.80
2022-10-08T22:38:28.758Z,9.80
2022-10-08T22:41:00.404Z,9.80
2022-10-08T22:43:27.197Z,9.80
2022-10-08T22:45:54.190Z,9.80
2022-10-08T22:48:21.551Z,9.80
2022-10-08T22:50:48.409Z,9.80
2022-10-08T22:53:15.223Z,9.70
2022-10-08T22:55:42.143Z,9.70
2022-10-08T22:58:09.221Z,9.60
2022-10-08T23:00:36.070Z,9.60
2022-10-08T23:03:02.928Z,9.60
2022-10-08T23:05:30.053Z,9.60
2022-10-08T23:07:57.179Z,9.50
2022-10-08T23:10:24.608Z,9.50
2022-10-08T23:12:54.571Z,9.40
2022-10-08T23:15:24.157Z,9.40
2022-10-08T23:17:51.103Z,9.30
2022-10-08T23:20:17.986Z,9.30
2022-10-08T23:22:44.862Z,9.20
2022-10-08T23:25:11.646Z,9.20
2022-10-08T23:27:38.468Z,9.20
2022-10-08T23:30:10.438Z,9.10
2022-10-08T23:32:47.994Z,9.10
2022-10-08T23:35:15.352Z,9.10
2022-10-08T23:37:42.840Z,9.10
2022-10-08T23:40:09.774Z,9.00
2022-10-08T23:42:36.637Z,9.10
2022-10-08T23:45:03.580Z,9.00
2022-10-08T23:47:30.856Z,8.90
2022-10-08T23:49:57.812Z,8.90
2022-10-08T23:52:24.618Z,8.90
2022-10-08T23:54:51.462Z,8.90
2022-10-08T23:57:20.532Z,8.80
2022-10-08T23:59:47.522Z,8.80
